Time;durP1;ratioP1;P1;durP2;ratioP2;P2;SDS_P1;SDS_P2;PMS_P1;PMS_P2;Temp;Humidity;BMP_temperature;BMP_pressure;BME280_temperature;BME280_humidity;BME280_pressure;Samples;Min_cycle;Max_cycle;Signal;HPM_P1;HPM_P2
2021/12/02 00:01:40;;;;;;;8.00;1.65;;;5.20;99.90;;;;;;5110943;28;20024;-44
2021/12/02 00:04:06;;;;;;;8.25;1.95;;;5.20;99.90;;;;;;5111607;28;20012;-44
2021/12/02 00:06:32;;;;;;;8.80;1.85;;;5.30;99.90;;;;;;5109362;28;20028;-45
2021/12/02 00:08:58;;;;;;;8.75;2.47;;;5.30;99.90;;;;;;5100437;28;20031;-45
2021/12/02 00:11:23;;;;;;;8.05;1.40;;;5.30;99.90;;;;;;5110695;28;20031;-45
2021/12/02 00:21:16;;;;;;;9.68;1.95;;;5.10;99.90;;;;;;5110655;28;20076;-47
2021/12/02 00:24:00;;;;;;;7.75;1.98;;;5.00;99.90;;;;;;5110943;28;20110;-45
2021/12/02 00:26:27;;;;;;;4.40;1.60;;;4.90;99.90;;;;;;5111283;28;20054;-45
2021/12/02 00:28:58;;;;;;;8.88;2.53;;;4.80;99.90;;;;;;5111217;28;20023;-47
2021/12/02 00:31:30;;;;;;;7.30;2.00;;;4.70;99.90;;;;;;5110423;28;20039;-45
2021/12/02 00:34:02;;;;;;;6.53;1.67;;;4.60;99.90;;;;;;5111127;28;20041;-45
2021/12/02 00:36:29;;;;;;;14.48;1.75;;;4.60;99.90;;;;;;5106728;28;20054;-47
2021/12/02 00:38:57;;;;;;;11.25;1.88;;;4.60;99.90;;;;;;5097040;28;20089;-46
2021/12/02 00:41:25;;;;;;;7.63;1.80;;;4.60;99.90;;;;;;5110371;28;20043;-47
2021/12/02 00:43:53;;;;;;;6.30;1.20;;;4.60;99.90;;;;;;5109563;28;20035;-47
2021/12/02 00:46:21;;;;;;;5.75;1.27;;;4.60;99.90;;;;;;5110998;28;20049;-44
2021/12/02 00:48:47;;;;;;;6.07;1.60;;;4.60;99.90;;;;;;5110976;28;20020;-45
2021/12/02 00:51:14;;;;;;;4.47;1.38;;;4.60;99.90;;;;;;5110246;28;20024;-44
2021/12/02 00:53:44;;;;;;;4.13;1.58;;;4.60;99.90;;;;;;5109337;28;20732;-47
2021/12/02 00:56:13;;;;;;;6.35;1.25;;;4.60;99.90;;;;;;5110739;28;20515;-44
2021/12/02 00:58:39;;;;;;;3.97;1.30;;;4.60;99.90;;;;;;5110877;28;20028;-44
2021/12/02 01:01:06;;;;;;;7.18;1.75;;;4.60;99.90;;;;;;5110098;28;20637;-44
2021/12/02 01:03:35;;;;;;;7.18;3.17;;;4.60;99.90;;;;;;5116478;28;20381;-45
2021/12/02 01:06:02;;;;;;;4.57;1.30;;;4.60;99.90;;;;;;5117516;27;20060;-45
2021/12/02 01:08:30;;;;;;;8.77;2.08;;;4.70;99.90;;;;;;5108085;28;20099;-45
2021/12/02 01:10:55;;;;;;;5.05;1.38;;;4.70;99.90;;;;;;5114200;28;20034;-46
2021/12/02 01:13:21;;;;;;;5.40;1.60;;;4.70;99.90;;;;;;5117360;28;20477;-46
2021/12/02 01:15:47;;;;;;;9.80;2.00;;;4.70;99.90;;;;;;5117282;27;20141;-46
2021/12/02 01:18:12;;;;;;;6.70;1.50;;;4.70;99.90;;;;;;5117156;27;20031;-45
2021/12/02 01:20:39;;;;;;;7.97;1.92;;;4.70;99.90;;;;;;5116587;27;20031;-46
2021/12/02 01:23:07;;;;;;;10.57;1.88;;;4.70;99.90;;;;;;5115644;28;20065;-47
2021/12/02 01:25:32;;;;;;;9.75;1.48;;;4.70;99.90;;;;;;5117362;28;20093;-45
2021/12/02 01:27:59;;;;;;;6.97;1.80;;;4.70;99.90;;;;;;5117266;27;20466;-45
2021/12/02 01:30:29;;;;;;;7.93;1.50;;;4.70;99.90;;;;;;5116458;27;20059;-45
2021/12/02 01:33:04;;;;;;;10.93;1.45;;;4.70;99.90;;;;;;5117275;27;20638;-44
2021/12/02 01:35:31;;;;;;;6.55;1.60;;;4.80;99.90;;;;;;5117298;27;20032;-45
2021/12/02 01:37:57;;;;;;;12.18;2.28;;;4.80;99.90;;;;;;5108524;27;20107;-45
2021/12/02 01:40:23;;;;;;;9.20;1.60;;;4.80;99.90;;;;;;5109032;28;20820;-45
2021/12/02 01:43:30;;;;;;;6.63;1.50;;;4.80;99.90;;;;;;5112106;28;20038;-45
2021/12/02 01:45:56;;;;;;;4.53;1.55;;;4.70;99.90;;;;;;5092156;28;20031;-45
2021/12/02 01:48:24;;;;;;;9.05;1.35;;;4.70;99.90;;;;;;5096982;28;20052;-47
2021/12/02 01:51:11;;;;;;;8.10;2.42;;;4.70;99.90;;;;;;5096969;28;20020;-45
2021/12/02 01:53:40;;;;;;;5.07;1.33;;;4.70;99.90;;;;;;5096119;28;20126;-46
2021/12/02 01:56:13;;;;;;;2.33;1.60;;;4.70;99.90;;;;;;5096617;28;20047;-46
2021/12/02 01:58:48;;;;;;;6.10;1.15;;;4.60;99.90;;;;;;5078409;28;20027;-45
2021/12/02 02:01:19;;;;;;;7.22;1.63;;;4.60;99.90;;;;;;5096834;28;20591;-45
2021/12/02 02:03:46;;;;;;;12.70;1.80;;;4.50;99.90;;;;;;5096254;28;20116;-46
2021/12/02 02:06:14;;;;;;;6.38;1.80;;;4.50;99.90;;;;;;5096764;28;20015;-46
2021/12/02 02:08:44;;;;;;;8.45;1.60;;;4.40;99.90;;;;;;5096537;28;20044;-47
2021/12/02 02:11:11;;;;;;;11.68;1.85;;;4.40;99.90;;;;;;5096622;28;20028;-45
2021/12/02 02:13:37;;;;;;;6.72;1.67;;;4.40;99.90;;;;;;5093686;28;20028;-48
2021/12/02 02:16:02;;;;;;;7.38;1.60;;;4.40;99.90;;;;;;5102420;28;20020;-45
2021/12/02 02:18:28;;;;;;;8.05;2.15;;;4.40;99.90;;;;;;5112174;28;20119;-46
2021/12/02 02:21:02;;;;;;;5.97;1.90;;;4.40;99.90;;;;;;5113545;28;20051;-46
2021/12/02 02:23:32;;;;;;;7.80;1.70;;;4.40;99.90;;;;;;5112870;28;20028;-45
2021/12/02 02:25:59;;;;;;;11.13;1.77;;;4.40;99.90;;;;;;5113413;28;20019;-47
2021/12/02 02:28:25;;;;;;;6.55;1.55;;;4.30;99.90;;;;;;5113304;28;20020;-47
2021/12/02 02:30:51;;;;;;;8.82;1.75;;;4.30;99.90;;;;;;5113331;28;20023;-45
2021/12/02 02:33:19;;;;;;;12.35;2.13;;;4.30;99.90;;;;;;5112850;28;20020;-44
2021/12/02 02:35:45;;;;;;;8.68;1.80;;;4.30;99.90;;;;;;5113240;28;20020;-46
2021/12/02 02:38:11;;;;;;;12.25;2.50;;;4.40;99.90;;;;;;5106885;28;20436;-46
2021/12/02 02:40:40;;;;;;;12.32;1.60;;;4.40;99.90;;;;;;5106191;28;20465;-45
2021/12/02 02:43:08;;;;;;;9.02;1.92;;;4.40;99.90;;;;;;5113221;28;20099;-45
2021/12/02 02:45:35;;;;;;;15.52;1.98;;;4.30;99.90;;;;;;5111160;28;20035;-46
2021/12/02 02:48:00;;;;;;;8.75;2.70;;;4.30;99.90;;;;;;5113084;28;20054;-46
2021/12/02 02:50:29;;;;;;;6.72;2.17;;;4.20;99.90;;;;;;5112955;27;20505;-45
2021/12/02 02:53:04;;;;;;;12.35;2.45;;;4.20;99.90;;;;;;5112834;28;20016;-45
2021/12/02 02:55:31;;;;;;;12.18;1.63;;;4.10;99.90;;;;;;5112595;28;20035;-46
2021/12/02 02:58:24;;;;;;;6.25;1.77;;;4.10;99.90;;;;;;5111567;28;20023;-48
2021/12/02 03:03:44;;;;;;;5.10;1.40;;;3.90;99.90;;;;;;5100280;28;20509;-46
2021/12/02 03:06:26;;;;;;;11.85;1.58;;;3.80;99.90;;;;;;5112637;28;20054;-46
2021/12/02 03:08:57;;;;;;;9.23;1.90;;;3.80;99.90;;;;;;5101377;28;20012;-47
2021/12/02 03:11:26;;;;;;;6.85;1.90;;;3.70;99.90;;;;;;5072085;28;20027;-45
2021/12/02 03:13:52;;;;;;;17.00;2.28;;;3.70;99.90;;;;;;5071326;28;20051;-47
2021/12/02 03:16:44;;;;;;;7.40;1.60;;;3.70;99.90;;;;;;5072046;28;20056;-45
2021/12/02 03:19:11;;;;;;;8.50;2.25;;;3.70;99.90;;;;;;5072097;28;20420;-44
2021/12/02 03:21:37;;;;;;;18.55;2.30;;;3.70;99.90;;;;;;5071889;28;20044;-45
2021/12/02 03:24:03;;;;;;;10.05;2.55;;;3.70;99.90;;;;;;5070937;28;20051;-45
2021/12/02 03:26:30;;;;;;;7.70;1.90;;;3.90;99.90;;;;;;5071510;28;20031;-45
2021/12/02 03:28:57;;;;;;;9.82;3.30;;;3.90;99.90;;;;;;5071660;28;20089;-46
2021/12/02 03:31:22;;;;;;;8.05;1.90;;;4.00;99.90;;;;;;5071709;28;20490;-45
2021/12/02 03:33:48;;;;;;;10.18;1.88;;;4.00;99.90;;;;;;5070773;28;20107;-45
2021/12/02 03:36:15;;;;;;;11.75;2.13;;;4.10;99.90;;;;;;5071449;28;20060;-48
2021/12/02 03:38:41;;;;;;;18.63;2.83;;;4.20;99.90;;;;;;5094775;28;20480;-45
2021/12/02 03:41:07;;;;;;;5.03;1.77;;;4.10;99.90;;;;;;5110428;28;20024;-46
2021/12/02 03:43:37;;;;;;;16.45;2.30;;;4.10;99.90;;;;;;5111334;28;20509;-46
2021/12/02 03:46:03;;;;;;;18.40;2.00;;;4.20;99.90;;;;;;5111882;28;20102;-45
2021/12/02 03:48:29;;;;;;;21.33;4.20;;;4.20;99.90;;;;;;5110625;28;20023;-45
2021/12/02 03:50:56;;;;;;;10.68;1.90;;;4.10;99.90;;;;;;5111667;28;20020;-45
2021/12/02 03:53:22;;;;;;;11.43;2.03;;;4.10;99.90;;;;;;5110898;28;20032;-45
2021/12/02 03:55:47;;;;;;;15.63;2.08;;;4.10;99.90;;;;;;5111705;28;20105;-44
2021/12/02 03:58:13;;;;;;;7.57;2.65;;;4.00;99.90;;;;;;5111493;28;20046;-45
2021/12/02 04:00:39;;;;;;;12.40;2.05;;;4.00;99.90;;;;;;5110458;28;20016;-46
2021/12/02 04:03:05;;;;;;;13.05;2.63;;;4.00;99.90;;;;;;5110324;28;20025;-45
2021/12/02 04:05:30;;;;;;;14.20;3.30;;;3.90;99.90;;;;;;5110964;28;20054;-45
2021/12/02 04:07:56;;;;;;;11.23;1.60;;;3.90;99.90;;;;;;5108911;28;20032;-47
2021/12/02 04:10:22;;;;;;;16.13;2.97;;;3.90;99.90;;;;;;5100858;28;20028;-45
2021/12/02 04:13:05;;;;;;;16.15;1.95;;;3.90;99.90;;;;;;5109873;28;20019;-45
2021/12/02 04:15:34;;;;;;;4.57;1.35;;;3.90;99.90;;;;;;5109670;28;20027;-45
2021/12/02 04:18:00;;;;;;;1.20;0.70;;;3.90;99.90;;;;;;5110166;27;20019;-45
2021/12/02 04:20:26;;;;;;;2.03;0.70;;;3.80;99.90;;;;;;5109908;28;20085;-46
2021/12/02 04:22:56;;;;;;;1.98;0.55;;;3.60;99.90;;;;;;5109374;28;20026;-45
2021/12/02 04:25:22;;;;;;;1.52;0.90;;;3.40;99.90;;;;;;5107644;28;20028;-45
2021/12/02 04:27:49;;;;;;;2.97;0.80;;;3.10;99.90;;;;;;5109671;28;20554;-46
2021/12/02 04:30:18;;;;;;;1.95;0.80;;;2.90;99.90;;;;;;5110055;28;20035;-45
2021/12/02 04:32:44;;;;;;;3.40;0.68;;;2.80;99.90;;;;;;5109730;28;20250;-45
2021/12/02 04:35:11;;;;;;;5.43;0.80;;;2.60;99.90;;;;;;5109402;28;20484;-45
2021/12/02 04:37:37;;;;;;;2.97;1.05;;;2.50;99.90;;;;;;5105867;28;20469;-45
2021/12/02 04:40:03;;;;;;;3.53;0.90;;;2.50;99.90;;;;;;5100862;28;20063;-44
2021/12/02 04:42:29;;;;;;;2.35;1.52;;;2.50;99.90;;;;;;5109502;28;20174;-45
2021/12/02 04:44:55;;;;;;;2.20;1.02;;;2.40;99.90;;;;;;5108401;28;20491;-45
2021/12/02 04:47:21;;;;;;;4.90;1.38;;;2.40;99.90;;;;;;5107944;28;20083;-46
2021/12/02 04:49:46;;;;;;;5.00;1.25;;;2.40;99.90;;;;;;5109203;28;20099;-46
2021/12/02 04:52:12;;;;;;;3.55;1.25;;;2.50;99.90;;;;;;5108923;28;20038;-46
2021/12/02 04:54:37;;;;;;;8.30;2.47;;;2.50;99.90;;;;;;5107235;28;20024;-47
2021/12/02 04:57:04;;;;;;;2.88;1.08;;;2.50;99.90;;;;;;5109076;28;20293;-47
2021/12/02 04:59:29;;;;;;;8.05;2.13;;;2.50;99.90;;;;;;5109048;28;20091;-48
2021/12/02 05:01:55;;;;;;;3.65;0.90;;;2.60;99.90;;;;;;5109143;28;20137;-48
2021/12/02 05:04:20;;;;;;;6.53;1.40;;;2.60;99.90;;;;;;5108564;28;20027;-46
2021/12/02 05:06:46;;;;;;;8.10;2.55;;;2.60;99.90;;;;;;5109172;28;20084;-48
2021/12/02 05:09:12;;;;;;;5.20;1.48;;;2.60;99.90;;;;;;5099508;28;20035;-46
2021/12/02 05:11:38;;;;;;;8.82;1.83;;;2.60;99.90;;;;;;5109062;28;20036;-45
2021/12/02 05:14:04;;;;;;;8.60;1.92;;;2.60;99.90;;;;;;5108217;28;20028;-45
2021/12/02 05:16:30;;;;;;;6.15;1.60;;;2.60;99.90;;;;;;5108826;28;20051;-44
2021/12/02 05:18:56;;;;;;;5.20;1.58;;;2.70;99.90;;;;;;5108963;28;20499;-45
2021/12/02 05:21:21;;;;;;;7.68;1.83;;;2.70;99.90;;;;;;5108860;28;20027;-44
2021/12/02 05:23:52;;;;;;;20.70;1.63;;;2.70;99.90;;;;;;5108237;28;20028;-44
2021/12/02 05:26:18;;;;;;;5.15;1.80;;;2.70;99.90;;;;;;5109304;28;20469;-45
2021/12/02 05:28:44;;;;;;;7.07;1.80;;;2.70;99.90;;;;;;5109007;28;20038;-45
2021/12/02 05:31:09;;;;;;;11.85;2.13;;;2.70;99.90;;;;;;5107272;28;20108;-46
2021/12/02 05:33:34;;;;;;;12.43;2.67;;;2.70;99.90;;;;;;5108118;28;20032;-44
2021/12/02 05:36:00;;;;;;;10.32;1.80;;;2.70;99.90;;;;;;5108977;28;20110;-44
2021/12/02 05:38:25;;;;;;;8.45;3.03;;;2.70;99.90;;;;;;5090697;28;20099;-45
2021/12/02 05:40:51;;;;;;;10.88;3.15;;;2.60;99.90;;;;;;5100108;28;20047;-46
2021/12/02 05:43:16;;;;;;;6.88;2.30;;;2.70;99.90;;;;;;5106793;28;20015;-45
2021/12/02 05:45:42;;;;;;;10.63;2.40;;;2.70;99.90;;;;;;5090210;28;20093;-49
2021/12/02 05:48:07;;;;;;;7.53;2.28;;;2.70;99.90;;;;;;5088570;28;20044;-47
2021/12/02 05:50:33;;;;;;;8.30;2.30;;;2.70;99.90;;;;;;5092057;28;20032;-45
2021/12/02 05:52:58;;;;;;;6.68;2.20;;;2.80;99.90;;;;;;5091831;28;20076;-45
2021/12/02 05:55:24;;;;;;;6.65;1.98;;;2.80;99.90;;;;;;5091675;28;20093;-46
2021/12/02 05:57:49;;;;;;;5.38;2.25;;;2.80;99.90;;;;;;5092146;28;20055;-45
2021/12/02 06:00:16;;;;;;;7.35;2.45;;;2.80;99.90;;;;;;5092449;28;20086;-45
2021/12/02 06:02:41;;;;;;;6.50;2.38;;;2.80;99.90;;;;;;5092314;28;20071;-46
2021/12/02 06:05:07;;;;;;;11.52;2.53;;;2.80;99.90;;;;;;5089712;28;20055;-47
2021/12/02 06:07:33;;;;;;;9.60;2.00;;;2.80;99.90;;;;;;5091238;28;20024;-46
2021/12/02 06:09:59;;;;;;;7.75;2.13;;;2.80;99.90;;;;;;5101088;28;20024;-48
2021/12/02 06:12:24;;;;;;;7.55;2.78;;;2.80;99.90;;;;;;5112384;28;20030;-49
2021/12/02 06:14:50;;;;;;;11.95;2.35;;;2.80;99.90;;;;;;5113138;28;20081;-47
2021/12/02 06:17:16;;;;;;;10.82;2.47;;;2.80;99.90;;;;;;5113433;28;20039;-47
2021/12/02 06:19:42;;;;;;;12.80;2.60;;;2.80;99.90;;;;;;5099375;28;20035;-45
2021/12/02 06:22:08;;;;;;;12.95;3.28;;;2.80;99.90;;;;;;5103124;28;20570;-46
2021/12/02 06:24:47;;;;;;;9.98;2.60;;;2.90;99.90;;;;;;5102003;28;20012;-46
2021/12/02 06:27:14;;;;;;;11.32;2.10;;;2.90;99.90;;;;;;5103496;28;20446;-46
2021/12/02 06:29:40;;;;;;;10.43;3.85;;;2.90;99.90;;;;;;5109335;28;20016;-46
2021/12/02 06:32:07;;;;;;;7.85;1.95;;;2.90;99.90;;;;;;5112276;28;20107;-45
2021/12/02 06:34:33;;;;;;;6.93;1.80;;;2.90;99.90;;;;;;5111505;28;20047;-45
2021/12/02 06:36:58;;;;;;;4.60;1.40;;;2.90;99.90;;;;;;5111670;28;20235;-45
2021/12/02 06:39:24;;;;;;;6.55;1.58;;;2.90;99.90;;;;;;5091271;28;20329;-48
2021/12/02 06:41:50;;;;;;;9.27;1.95;;;2.90;99.90;;;;;;5098816;28;20469;-46
2021/12/02 06:44:15;;;;;;;11.43;1.70;;;2.90;99.90;;;;;;5101589;28;20031;-46
2021/12/02 06:46:41;;;;;;;6.63;1.88;;;2.90;99.90;;;;;;5104301;28;20040;-45
2021/12/02 06:49:06;;;;;;;9.35;2.90;;;2.90;99.90;;;;;;5102007;28;20036;-45
2021/12/02 06:51:32;;;;;;;13.60;2.72;;;3.00;99.90;;;;;;5096656;28;20606;-47
2021/12/02 06:53:58;;;;;;;7.90;1.95;;;3.00;99.90;;;;;;5109090;28;20024;-45
2021/12/02 06:56:23;;;;;;;9.35;3.08;;;2.90;99.90;;;;;;5105444;28;20114;-46
2021/12/02 06:58:49;;;;;;;6.80;1.75;;;3.00;99.90;;;;;;5088046;28;20023;-45
2021/12/02 07:01:14;;;;;;;5.90;2.22;;;2.90;99.90;;;;;;5095700;28;20055;-48
2021/12/02 07:03:40;;;;;;;6.35;1.70;;;2.90;99.90;;;;;;5091769;28;20366;-45
2021/12/02 07:06:06;;;;;;;11.63;2.25;;;2.90;99.90;;;;;;5095525;28;20159;-48
2021/12/02 07:08:32;;;;;;;4.55;1.50;;;2.90;99.90;;;;;;5095796;28;20020;-46
2021/12/02 07:11:04;;;;;;;9.77;1.55;;;2.90;99.90;;;;;;5087326;28;20017;-49
2021/12/02 07:13:30;;;;;;;11.60;2.80;;;2.90;99.90;;;;;;5102327;28;20027;-46
2021/12/02 07:15:57;;;;;;;6.18;2.38;;;2.90;99.90;;;;;;5112513;28;20019;-45
2021/12/02 07:18:24;;;;;;;11.45;1.63;;;3.00;99.90;;;;;;5106008;28;20023;-48
2021/12/02 07:20:50;;;;;;;7.55;1.70;;;3.00;99.90;;;;;;5099720;28;20079;-47
2021/12/02 07:23:18;;;;;;;7.53;2.10;;;3.00;99.90;;;;;;5088246;28;20488;-47
2021/12/02 07:25:44;;;;;;;11.77;2.30;;;3.00;99.90;;;;;;5091434;28;20027;-48
2021/12/02 07:28:11;;;;;;;8.70;1.90;;;3.00;99.90;;;;;;5090926;28;20389;-45
2021/12/02 07:30:36;;;;;;;3.85;1.65;;;3.10;99.90;;;;;;5089798;28;20031;-45
2021/12/02 07:33:04;;;;;;;10.13;1.90;;;3.10;99.90;;;;;;5087010;28;20028;-46
2021/12/02 07:35:29;;;;;;;15.20;2.65;;;3.10;99.90;;;;;;5090759;28;20032;-44
2021/12/02 07:37:58;;;;;;;5.47;2.00;;;3.10;99.90;;;;;;5084359;28;20081;-45
2021/12/02 07:40:24;;;;;;;5.90;1.65;;;3.10;99.90;;;;;;5102536;28;20022;-45
2021/12/02 07:42:52;;;;;;;10.63;2.00;;;3.10;99.90;;;;;;5089397;28;20020;-47
2021/12/02 07:45:18;;;;;;;6.72;2.28;;;3.10;99.90;;;;;;5084423;28;20054;-45
2021/12/02 07:47:44;;;;;;;15.63;1.95;;;3.10;99.90;;;;;;5088316;28;20012;-44
2021/12/02 07:50:13;;;;;;;4.35;1.83;;;3.10;99.90;;;;;;5093333;28;20111;-48
2021/12/02 07:52:46;;;;;;;5.55;1.60;;;3.00;99.90;;;;;;5087470;28;20028;-45
2021/12/02 07:55:14;;;;;;;4.82;1.92;;;3.00;99.90;;;;;;5095770;28;20094;-45
2021/12/02 07:57:42;;;;;;;8.07;1.58;;;2.90;99.90;;;;;;5089022;28;20044;-46
2021/12/02 08:00:08;;;;;;;7.47;1.88;;;2.90;99.90;;;;;;5088942;28;20024;-46
2021/12/02 08:02:35;;;;;;;9.07;1.90;;;2.90;99.90;;;;;;5089113;28;20024;-47
2021/12/02 08:05:01;;;;;;;5.80;1.20;;;2.90;99.90;;;;;;5089546;28;20107;-45
2021/12/02 08:07:26;;;;;;;3.10;1.25;;;2.90;99.90;;;;;;5090466;28;20434;-44
2021/12/02 08:09:52;;;;;;;7.85;2.03;;;2.90;99.90;;;;;;5090790;28;20089;-45
2021/12/02 08:12:18;;;;;;;7.95;2.20;;;2.90;99.90;;;;;;5088247;28;20032;-46
2021/12/02 08:14:43;;;;;;;2.33;1.15;;;2.90;99.90;;;;;;5097330;28;20031;-45
2021/12/02 08:17:09;;;;;;;9.20;1.63;;;2.90;99.90;;;;;;5099688;28;20035;-45
2021/12/02 08:19:34;;;;;;;9.48;1.90;;;2.90;99.90;;;;;;5110672;28;20051;-45
2021/12/02 08:22:00;;;;;;;2.22;1.00;;;3.00;99.90;;;;;;5105202;28;20033;-46
2021/12/02 08:24:26;;;;;;;6.80;1.65;;;3.00;99.90;;;;;;5101146;28;20572;-45
2021/12/02 08:26:54;;;;;;;5.95;2.30;;;3.10;99.90;;;;;;5108930;28;20027;-45
2021/12/02 08:29:21;;;;;;;7.35;1.52;;;3.00;99.90;;;;;;5109020;28;20020;-45
2021/12/02 08:31:48;;;;;;;7.43;2.17;;;3.00;99.90;;;;;;5107560;28;20024;-45
2021/12/02 08:34:14;;;;;;;12.75;1.92;;;3.10;99.90;;;;;;5108287;28;20087;-45
2021/12/02 08:36:57;;;;;;;8.57;1.45;;;3.20;99.90;;;;;;5108860;28;20027;-47
2021/12/02 08:39:30;;;;;;;9.85;2.22;;;3.30;99.90;;;;;;5098935;28;20072;-46
2021/12/02 08:41:56;;;;;;;8.27;1.73;;;3.50;99.90;;;;;;5105506;28;20169;-46
2021/12/02 08:44:25;;;;;;;7.82;1.90;;;3.60;99.90;;;;;;5088108;28;20024;-46
2021/12/02 08:46:52;;;;;;;7.25;2.00;;;3.70;99.90;;;;;;5084641;28;20043;-45
2021/12/02 08:49:20;;;;;;;12.20;2.25;;;3.80;99.90;;;;;;5088734;28;20489;-46
2021/12/02 08:51:46;;;;;;;9.40;1.65;;;3.80;99.90;;;;;;5088988;28;20036;-46
2021/12/02 08:54:13;;;;;;;4.72;1.60;;;3.80;99.90;;;;;;5088071;28;20030;-45
2021/12/02 08:56:39;;;;;;;9.70;1.63;;;3.70;99.90;;;;;;5089125;28;20075;-45
2021/12/02 08:59:05;;;;;;;8.57;1.92;;;3.60;99.90;;;;;;5089115;28;20042;-46
2021/12/02 09:01:32;;;;;;;6.10;2.00;;;3.50;99.90;;;;;;5089009;28;20024;-47
2021/12/02 09:03:58;;;;;;;10.35;1.83;;;3.50;99.90;;;;;;5088282;28;20043;-46
2021/12/02 09:06:24;;;;;;;6.45;1.88;;;3.40;99.90;;;;;;5088790;28;20059;-45
2021/12/02 09:08:53;;;;;;;10.23;2.60;;;3.40;99.90;;;;;;5096164;28;20077;-46
2021/12/02 09:11:19;;;;;;;4.93;1.30;;;3.30;99.90;;;;;;5092179;28;20234;-46
2021/12/02 09:13:44;;;;;;;7.90;1.50;;;3.30;99.90;;;;;;5108176;28;20076;-46
2021/12/02 09:16:11;;;;;;;13.73;1.67;;;3.30;99.90;;;;;;5108948;28;20024;-48
2021/12/02 09:18:38;;;;;;;8.05;1.48;;;3.30;99.90;;;;;;5108887;28;20020;-45
2021/12/02 09:21:03;;;;;;;8.05;1.70;;;3.30;99.90;;;;;;5109004;28;20027;-45
2021/12/02 09:23:29;;;;;;;5.80;1.48;;;3.40;99.90;;;;;;5109148;28;20477;-47
2021/12/02 09:25:54;;;;;;;11.38;1.73;;;3.40;99.90;;;;;;5113501;28;20036;-45
2021/12/02 09:28:20;;;;;;;8.65;1.20;;;3.40;99.90;;;;;;5112920;28;20016;-46
2021/12/02 09:30:46;;;;;;;7.05;1.42;;;3.40;99.90;;;;;;5113039;28;20583;-47
2021/12/02 09:33:12;;;;;;;6.38;1.45;;;3.40;99.90;;;;;;5112902;27;20032;-45
2021/12/02 09:35:38;;;;;;;4.57;1.40;;;3.50;99.90;;;;;;5112405;28;20493;-47
2021/12/02 09:38:06;;;;;;;6.53;1.73;;;3.50;99.90;;;;;;5103513;28;20031;-46
2021/12/02 09:40:32;;;;;;;5.05;1.60;;;3.50;99.90;;;;;;5104544;28;20012;-47
2021/12/02 09:42:57;;;;;;;6.15;2.90;;;3.60;99.90;;;;;;5112710;28;20023;-46
2021/12/02 09:45:23;;;;;;;8.48;2.42;;;3.60;99.90;;;;;;5111999;28;20495;-45
2021/12/02 09:47:50;;;;;;;12.77;1.52;;;3.60;99.90;;;;;;5112426;28;20469;-47
2021/12/02 09:50:32;;;;;;;5.18;1.60;;;3.60;99.90;;;;;;5112469;28;20020;-45
2021/12/02 09:53:07;;;;;;;6.28;1.50;;;3.60;99.90;;;;;;5112278;28;20027;-45
2021/12/02 09:55:41;;;;;;;5.35;2.78;;;3.70;99.90;;;;;;5111805;28;20433;-45
2021/12/02 09:58:12;;;;;;;7.60;1.55;;;3.70;99.90;;;;;;5112386;28;20066;-46
2021/12/02 10:01:02;;;;;;;4.70;1.40;;;3.70;99.90;;;;;;5112254;28;20020;-48
2021/12/02 10:03:31;;;;;;;7.72;1.77;;;3.80;99.90;;;;;;5111385;28;20032;-48
2021/12/02 10:06:24;;;;;;;6.32;0.93;;;3.80;99.90;;;;;;5112149;28;20107;-45
2021/12/02 10:08:57;;;;;;;5.63;1.80;;;3.80;99.90;;;;;;5108219;28;20062;-46
2021/12/02 10:11:59;;;;;;;6.80;2.00;;;4.00;99.90;;;;;;5096067;28;20054;-47
2021/12/02 10:14:28;;;;;;;5.15;1.45;;;4.00;99.90;;;;;;5111198;28;20477;-45
2021/12/02 10:17:17;;;;;;;3.03;1.20;;;4.10;99.90;;;;;;5111970;28;20020;-45
2021/12/02 10:20:01;;;;;;;6.82;1.42;;;4.20;99.90;;;;;;5111522;28;20474;-45
2021/12/02 10:22:27;;;;;;;4.70;1.13;;;4.30;99.90;;;;;;5111259;28;20076;-47
2021/12/02 10:24:52;;;;;;;7.32;1.33;;;4.40;99.90;;;;;;5110427;27;20279;-45
2021/12/02 10:27:18;;;;;;;6.15;2.40;;;5.10;99.90;;;;;;5111522;28;20042;-46
2021/12/02 10:29:48;;;;;;;7.32;1.38;;;6.50;99.90;;;;;;5103721;28;20107;-46
2021/12/02 10:32:19;;;;;;;4.63;1.60;;;8.20;99.90;;;;;;5102345;28;20023;-46
2021/12/02 10:35:06;;;;;;;3.20;1.30;;;10.10;93.70;;;;;;5109735;28;20035;-46
2021/12/02 10:37:39;;;;;;;3.38;1.30;;;11.40;82.00;;;;;;5111384;28;20465;-46
2021/12/02 10:40:14;;;;;;;2.83;1.00;;;12.10;78.60;;;;;;5098599;28;20389;-45
2021/12/02 10:42:42;;;;;;;3.65;1.10;;;12.90;74.70;;;;;;5111276;28;20016;-46
2021/12/02 10:45:21;;;;;;;4.28;1.30;;;13.70;70.10;;;;;;5110995;28;20027;-46
2021/12/02 10:47:51;;;;;;;7.43;2.88;;;14.50;66.70;;;;;;5107042;28;20024;-47
2021/12/02 10:50:18;;;;;;;4.43;1.17;;;14.30;62.20;;;;;;5092502;28;20023;-47
2021/12/02 10:52:43;;;;;;;2.25;1.00;;;13.90;63.60;;;;;;5110523;28;20019;-46
2021/12/02 10:55:10;;;;;;;3.70;1.42;;;14.30;62.60;;;;;;5110142;28;20152;-46
2021/12/02 10:57:38;;;;;;;7.97;1.65;;;14.60;60.20;;;;;;5110461;28;20020;-46
2021/12/02 11:00:11;;;;;;;3.78;1.27;;;14.30;60.10;;;;;;5110383;28;20473;-48
2021/12/02 11:02:40;;;;;;;5.50;1.17;;;14.10;61.80;;;;;;5109702;28;20042;-46
2021/12/02 11:05:10;;;;;;;3.60;1.10;;;14.60;61.30;;;;;;5109794;28;20047;-45
2021/12/02 11:07:40;;;;;;;6.38;1.38;;;14.70;58.20;;;;;;5110106;28;20020;-46
2021/12/02 11:10:12;;;;;;;3.90;1.15;;;14.20;58.80;;;;;;5097890;28;20016;-47
2021/12/02 11:12:40;;;;;;;2.92;1.20;;;14.20;60.10;;;;;;5108594;28;20032;-46
2021/12/02 11:15:24;;;;;;;4.35;1.23;;;13.80;60.60;;;;;;5109797;28;20400;-49
2021/12/02 11:17:54;;;;;;;2.47;0.80;;;13.50;61.80;;;;;;5109965;27;20054;-46
2021/12/02 11:20:35;;;;;;;2.72;1.00;;;13.10;62.10;;;;;;5109432;28;20473;-46
2021/12/02 11:23:06;;;;;;;7.22;1.50;;;12.80;63.20;;;;;;5110286;28;20449;-52
2021/12/02 11:25:35;;;;;;;7.97;1.55;;;12.30;62.70;;;;;;5110017;28;20427;-45
2021/12/02 11:28:08;;;;;;;3.97;1.48;;;11.60;66.10;;;;;;5108946;28;20458;-45
2021/12/02 11:30:35;;;;;;;4.18;1.58;;;10.80;68.20;;;;;;5109743;28;20032;-46
2021/12/02 11:33:09;;;;;;;6.68;1.75;;;10.00;71.20;;;;;;5088612;28;20041;-46
2021/12/02 11:35:41;;;;;;;4.05;1.40;;;9.30;72.90;;;;;;5088043;28;20166;-45
2021/12/02 11:38:55;;;;;;;5.03;1.35;;;8.70;74.70;;;;;;5087952;28;20569;-45
2021/12/02 11:41:21;;;;;;;6.20;1.30;;;8.00;77.60;;;;;;5094515;28;20077;-46
2021/12/02 11:43:47;;;;;;;6.60;1.45;;;7.30;78.80;;;;;;5110028;28;20020;-45
2021/12/02 11:46:13;;;;;;;7.60;1.40;;;7.10;81.20;;;;;;5110128;28;20062;-45
2021/12/02 11:48:41;;;;;;;5.45;1.17;;;6.90;83.40;;;;;;5110813;28;20051;-46
2021/12/02 11:51:18;;;;;;;6.25;1.52;;;6.70;86.30;;;;;;5110791;28;20642;-46
2021/12/02 11:53:44;;;;;;;4.50;1.48;;;6.50;88.70;;;;;;5109938;28;20057;-45
2021/12/02 11:56:16;;;;;;;2.25;1.15;;;6.30;90.20;;;;;;5110373;28;20055;-46
2021/12/02 11:58:42;;;;;;;8.73;1.70;;;6.30;90.50;;;;;;5108641;27;20019;-46
2021/12/02 12:01:15;;;;;;;6.25;1.48;;;6.20;90.70;;;;;;5108430;28;20374;-45
2021/12/02 12:03:48;;;;;;;4.25;1.42;;;6.00;90.30;;;;;;5106480;28;20015;-47
2021/12/02 12:06:22;;;;;;;5.07;1.23;;;5.90;91.80;;;;;;5108411;28;20426;-45
2021/12/02 12:08:53;;;;;;;4.50;1.25;;;5.60;91.50;;;;;;5107003;28;20019;-46
2021/12/02 12:11:20;;;;;;;6.07;1.20;;;5.60;92.00;;;;;;5093088;28;20027;-45
2021/12/02 12:13:48;;;;;;;5.95;1.55;;;5.50;92.20;;;;;;5109557;28;20020;-45
2021/12/02 12:16:42;;;;;;;3.80;1.13;;;5.50;91.90;;;;;;5110692;28;20027;-44
2021/12/02 12:19:32;;;;;;;9.07;1.23;;;5.50;92.50;;;;;;5099713;28;20046;-45
2021/12/02 12:22:13;;;;;;;7.60;1.20;;;5.40;93.80;;;;;;5088194;28;20391;-44
2021/12/02 12:24:53;;;;;;;5.78;1.15;;;5.50;94.70;;;;;;5086705;28;20028;-45
2021/12/02 12:27:26;;;;;;;4.65;1.08;;;5.40;94.40;;;;;;5086888;28;20047;-44
2021/12/02 12:30:01;;;;;;;3.75;1.15;;;5.30;94.30;;;;;;5084350;28;20028;-44
2021/12/02 12:32:41;;;;;;;6.65;0.93;;;5.30;94.50;;;;;;5086071;28;20250;-45
2021/12/02 12:35:14;;;;;;;3.42;1.27;;;5.30;95.00;;;;;;5083710;28;20061;-45
2021/12/02 12:40:18;;;;;;;5.15;1.45;;;5.10;96.30;;;;;;5092575;28;20043;-44
2021/12/02 12:42:57;;;;;;;8.23;1.20;;;5.10;97.10;;;;;;5086825;28;20108;-46
2021/12/02 12:45:30;;;;;;;4.30;0.98;;;5.00;97.40;;;;;;5087100;28;20032;-46
2021/12/02 12:48:01;;;;;;;2.88;1.10;;;5.10;95.70;;;;;;5088317;28;20070;-45
2021/12/02 12:50:39;;;;;;;3.53;1.00;;;5.00;96.20;;;;;;5087907;28;20232;-46
2021/12/02 12:53:04;;;;;;;5.18;1.30;;;5.00;95.90;;;;;;5087804;28;20127;-44
2021/12/02 12:55:56;;;;;;;4.57;0.98;;;5.00;97.40;;;;;;5087276;28;20139;-45
2021/12/02 12:58:23;;;;;;;12.48;2.47;;;4.90;97.00;;;;;;5084386;28;20101;-45
2021/12/02 13:01:02;;;;;;;8.80;2.03;;;4.90;97.20;;;;;;5085629;28;20024;-45
2021/12/02 13:03:53;;;;;;;3.95;1.10;;;4.90;97.40;;;;;;5085335;28;20105;-45
2021/12/02 13:06:25;;;;;;;4.07;1.10;;;4.80;97.40;;;;;;5087867;28;20516;-44
2021/12/02 13:08:54;;;;;;;4.80;1.17;;;4.80;96.60;;;;;;5095237;28;20016;-45
2021/12/02 13:11:32;;;;;;;3.50;0.93;;;4.80;97.00;;;;;;5100088;28;20106;-45
2021/12/02 13:14:03;;;;;;;3.28;1.10;;;4.70;97.00;;;;;;5103715;28;20424;-45
2021/12/02 13:16:36;;;;;;;5.25;1.30;;;4.60;97.20;;;;;;5087536;28;20123;-44
2021/12/02 13:19:14;;;;;;;4.85;1.80;;;4.50;97.20;;;;;;5087546;28;20024;-45